Skip Navigation Links Skip Navigation Links

Current Weather

Burlington-Alamance Rgnl, Burlington, N.C.

For information only: do not use for flight planning or navigation.
Latest weather
Observation time Thursday, December 13, 2018 12:54 PM EST
Local time Thursday, December 13, 2018 1:14 PM EST
Flight conditions Visual Meteorological Conditions
Winds
Wind speed calm
Visibility 10 mi.
Sky condition
Ceiling 10,000 ft. overcast
Cloud layer overcast 10,000 ft.
Temperature 46°F
Dewpoint 32°F
Altimeter 30.27 in.Hg
Pressure change last 3 hours0.03 in.Hg
Pressure falling more quickly
Derived measurements
Relative humidity 58%
Wind chill 46°F
Density altitude -554 ft.
Sea-level pressure 30.28 in.Hg
Climate data
Temperature minimum, last 6 hours 28°F
Temperature maximum, last 6 hours 46°F
Remarks
Fully automated report.
Automated weather observing station with precipitation discriminator.
METAR KBUY 131754Z AUTO 00000KT 10SM OVC100 08/00 A3027 RMK AO2 SLP255 T00780000 10078 21022 58010

Settings

Location code

InnerDrive.Weather 4.0.6770.0 Release CLR 4.0.30319.42000
Copyright ©2018 Inner Drive Technology. All rights reserved. Portions Copyright ©1986-2018 David Braverman.

Find weather

Site navigation


Skip Navigation Links

Place info

Page info

PayPal - The safer, easier way to pay online!

Return home.

Copyright ©2018 Inner Drive Technology. Purveyors of fine, hand-crafted computer software. Page printed 2018-12-13T18:14:24 UTC.